Time;durP1;ratioP1;P1;durP2;ratioP2;P2;SDS_P1;SDS_P2;PMS_P1;PMS_P2;Temp;Humidity;BMP_temperature;BMP_pressure;BME280_temperature;BME280_humidity;BME280_pressure;Samples;Min_cycle;Max_cycle;Signal;HPM_P1;HPM_P2
2024/03/10 00:02:57;;;;;;;;;;;9.20;76.30;;;;;;5052137;28;19927;-71
2024/03/10 00:05:23;;;;;;;;;;;9.20;76.90;;;;;;5051548;28;20015;-68
2024/03/10 00:07:49;;;;;;;;;;;9.20;76.80;;;;;;5052831;28;20350;-71
2024/03/10 00:10:15;;;;;;;;;;;9.20;76.60;;;;;;5052445;28;19960;-71
2024/03/10 00:12:41;;;;;;;;;;;9.20;76.40;;;;;;5034860;28;19923;-71
2024/03/10 00:15:09;;;;;;;;;;;9.20;76.20;;;;;;5051334;28;20369;-68
2024/03/10 00:20:19;;;;;;;;;;;9.30;76.60;;;;;;5052544;28;19932;-71
2024/03/10 00:22:45;;;;;;;;;;;9.30;76.50;;;;;;5051583;28;19962;-71
2024/03/10 00:25:11;;;;;;;;;;;9.30;76.70;;;;;;5052896;28;20024;-71
2024/03/10 00:27:37;;;;;;;;;;;9.30;76.70;;;;;;5050562;28;20003;-68
2024/03/10 00:30:05;;;;;;;;;;;9.20;76.80;;;;;;5052169;28;20070;-69
2024/03/10 00:32:32;;;;;;;;;;;9.20;76.80;;;;;;5051035;28;20385;-69
2024/03/10 00:34:58;;;;;;;;;;;9.20;76.90;;;;;;5050952;28;19939;-70
2024/03/10 00:37:24;;;;;;;;;;;9.20;77.00;;;;;;5034670;28;19966;-71
2024/03/10 00:39:50;;;;;;;;;;;9.20;76.70;;;;;;5034741;28;20325;-71
2024/03/10 00:42:16;;;;;;;;;;;9.20;77.60;;;;;;5051783;28;19947;-71
2024/03/10 00:44:42;;;;;;;;;;;9.10;77.80;;;;;;5052454;28;19932;-71
2024/03/10 00:47:08;;;;;;;;;;;9.10;77.90;;;;;;5052237;28;20377;-69
2024/03/10 00:49:34;;;;;;;;;;;9.10;78.00;;;;;;5051351;28;19928;-71
2024/03/10 00:52:00;;;;;;;;;;;9.10;77.00;;;;;;5052025;28;20370;-71
2024/03/10 00:54:26;;;;;;;;;;;9.10;77.20;;;;;;5052080;28;19925;-69
2024/03/10 00:56:52;;;;;;;;;;;9.10;77.20;;;;;;5050739;28;19967;-69
2024/03/10 00:59:17;;;;;;;;;;;9.10;77.30;;;;;;5051899;28;20032;-69
2024/03/10 01:01:43;;;;;;;;;;;9.10;77.20;;;;;;5051488;28;20020;-71
2024/03/10 01:04:09;;;;;;;;;;;9.10;77.10;;;;;;5052097;28;19978;-69
2024/03/10 01:06:35;;;;;;;;;;;9.10;77.40;;;;;;5050814;28;20050;-70
2024/03/10 01:09:01;;;;;;;;;;;9.10;77.40;;;;;;5050514;28;20019;-71
2024/03/10 01:11:27;;;;;;;;;;;9.10;77.30;;;;;;5051530;28;20039;-71
2024/03/10 01:13:53;;;;;;;;;;;9.10;77.10;;;;;;5050769;28;19952;-71
2024/03/10 01:16:19;;;;;;;;;;;9.10;77.10;;;;;;5034035;28;19923;-71
2024/03/10 01:18:45;;;;;;;;;;;9.10;77.10;;;;;;5051737;28;20019;-69
2024/03/10 01:21:11;;;;;;;;;;;9.10;77.20;;;;;;5050127;28;20378;-68
2024/03/10 01:23:37;;;;;;;;;;;9.10;77.10;;;;;;5033709;28;19927;-68
2024/03/10 01:26:05;;;;;;;;;;;9.10;77.00;;;;;;5050659;28;20012;-70
2024/03/10 01:28:31;;;;;;;;;;;9.10;77.10;;;;;;5051499;28;19974;-69
2024/03/10 01:30:58;;;;;;;;;;;9.10;77.10;;;;;;5049929;28;20015;-71
2024/03/10 01:33:24;;;;;;;;;;;9.10;77.20;;;;;;5050219;28;19952;-69
2024/03/10 01:35:50;;;;;;;;;;;9.10;77.40;;;;;;5051867;28;19970;-69
2024/03/10 01:38:18;;;;;;;;;;;9.10;77.40;;;;;;5052445;28;20354;-68
2024/03/10 01:40:44;;;;;;;;;;;9.10;77.30;;;;;;5037721;28;20296;-69
2024/03/10 01:43:10;;;;;;;;;;;9.10;77.40;;;;;;5055660;28;19920;-69
2024/03/10 01:45:36;;;;;;;;;;;9.10;77.40;;;;;;5056033;28;19927;-71
2024/03/10 01:48:02;;;;;;;;;;;9.10;77.40;;;;;;5055280;28;20015;-70
2024/03/10 01:50:29;;;;;;;;;;;9.10;77.30;;;;;;5053962;28;19951;-71
2024/03/10 01:52:55;;;;;;;;;;;9.10;77.50;;;;;;5054277;28;19923;-69
2024/03/10 01:55:21;;;;;;;;;;;9.10;77.40;;;;;;5055322;28;19951;-69
2024/03/10 01:57:47;;;;;;;;;;;9.10;77.60;;;;;;5054012;28;19927;-71
2024/03/10 02:00:13;;;;;;;;;;;9.10;76.70;;;;;;5053291;28;20309;-71
2024/03/10 02:02:58;;;;;;;;;;;9.10;76.80;;;;;;5053926;28;19923;-71
2024/03/10 02:05:24;;;;;;;;;;;9.10;77.20;;;;;;5054981;28;20006;-71
2024/03/10 02:07:50;;;;;;;;;;;9.10;77.50;;;;;;5055023;28;20017;-68
2024/03/10 02:10:17;;;;;;;;;;;9.10;77.60;;;;;;5053542;28;19933;-68
2024/03/10 02:12:42;;;;;;;;;;;9.10;77.80;;;;;;5053731;28;20496;-70
2024/03/10 02:15:09;;;;;;;;;;;9.00;77.80;;;;;;5053620;28;19925;-71
2024/03/10 02:17:40;;;;;;;;;;;9.10;78.10;;;;;;5054910;28;19962;-69
2024/03/10 02:20:19;;;;;;;;;;;9.00;78.00;;;;;;5053203;28;19976;-71
2024/03/10 02:22:46;;;;;;;;;;;9.00;77.50;;;;;;5053857;28;20373;-71
2024/03/10 02:25:12;;;;;;;;;;;9.00;78.00;;;;;;5053566;28;19971;-70
2024/03/10 02:27:59;;;;;;;;;;;9.00;77.80;;;;;;5054823;28;19921;-68
2024/03/10 02:30:32;;;;;;;;;;;9.00;77.90;;;;;;5053108;28;19935;-70
2024/03/10 02:49:24;;;;;;;;;;;9.10;77.80;;;;;;5054142;28;20302;-68
2024/03/10 02:51:52;;;;;;;;;;;9.10;78.30;;;;;;5052120;28;19951;-71
2024/03/10 02:54:17;;;;;;;;;;;9.00;78.20;;;;;;5036660;28;19979;-70
2024/03/10 02:56:43;;;;;;;;;;;8.90;79.40;;;;;;5053126;28;19921;-68
2024/03/10 02:59:09;;;;;;;;;;;8.90;79.50;;;;;;5036381;28;19916;-71
2024/03/10 03:04:22;;;;;;;;;;;8.80;79.50;;;;;;5053037;28;19928;-71
2024/03/10 03:06:47;;;;;;;;;;;8.80;80.50;;;;;;5052922;28;19925;-70
2024/03/10 03:09:13;;;;;;;;;;;8.80;79.90;;;;;;5053856;28;19924;-69
2024/03/10 03:11:40;;;;;;;;;;;8.80;80.20;;;;;;5052244;28;19959;-68
2024/03/10 03:14:08;;;;;;;;;;;8.80;79.40;;;;;;5052786;28;20007;-69
2024/03/10 03:16:34;;;;;;;;;;;8.80;79.20;;;;;;5052331;28;20004;-69
2024/03/10 03:19:00;;;;;;;;;;;8.90;79.50;;;;;;5053930;28;19916;-71
2024/03/10 03:21:26;;;;;;;;;;;8.90;79.40;;;;;;5053087;28;20274;-69
2024/03/10 03:23:55;;;;;;;;;;;8.90;79.20;;;;;;5053605;28;19976;-70
2024/03/10 03:26:22;;;;;;;;;;;8.90;79.00;;;;;;5053518;28;19924;-70
2024/03/10 03:28:48;;;;;;;;;;;8.90;78.80;;;;;;5052157;28;20460;-68
2024/03/10 03:31:14;;;;;;;;;;;9.00;79.00;;;;;;5053399;28;19924;-71
2024/03/10 03:33:41;;;;;;;;;;;8.90;79.10;;;;;;5053525;28;20581;-68
2024/03/10 03:36:07;;;;;;;;;;;8.90;79.00;;;;;;5053806;28;20293;-70
2024/03/10 03:38:32;;;;;;;;;;;8.90;79.50;;;;;;5053335;28;19921;-71
2024/03/10 03:40:58;;;;;;;;;;;8.90;79.60;;;;;;5051772;28;19928;-69
2024/03/10 03:43:24;;;;;;;;;;;8.90;79.80;;;;;;5053313;28;19927;-71
2024/03/10 03:45:50;;;;;;;;;;;8.90;79.80;;;;;;5052429;28;19925;-71
2024/03/10 03:48:16;;;;;;;;;;;8.90;79.50;;;;;;5052163;28;19925;-69
2024/03/10 03:50:42;;;;;;;;;;;8.90;79.90;;;;;;5035173;28;19931;-68
2024/03/10 03:53:08;;;;;;;;;;;8.90;79.90;;;;;;5051920;28;19917;-71
2024/03/10 03:55:33;;;;;;;;;;;8.90;79.70;;;;;;5053564;28;19952;-69
2024/03/10 03:58:00;;;;;;;;;;;8.90;79.50;;;;;;5051915;28;20028;-71
2024/03/10 04:00:26;;;;;;;;;;;8.90;79.40;;;;;;5052870;28;20397;-71
2024/03/10 04:02:52;;;;;;;;;;;9.00;79.30;;;;;;5051478;28;19970;-71
2024/03/10 04:05:18;;;;;;;;;;;9.00;78.90;;;;;;5051390;28;19928;-71
2024/03/10 04:07:44;;;;;;;;;;;9.00;78.90;;;;;;5051414;28;19916;-70
2024/03/10 04:10:10;;;;;;;;;;;9.00;79.40;;;;;;5051982;28;19925;-71
2024/03/10 04:12:36;;;;;;;;;;;9.00;79.60;;;;;;5052813;28;19917;-69
2024/03/10 04:15:03;;;;;;;;;;;8.90;79.60;;;;;;5051390;28;19928;-70
2024/03/10 04:17:29;;;;;;;;;;;8.90;79.60;;;;;;5052535;28;19916;-71
2024/03/10 04:19:55;;;;;;;;;;;8.90;79.70;;;;;;5051301;28;20370;-71
2024/03/10 04:22:20;;;;;;;;;;;9.00;79.60;;;;;;5050591;28;20003;-71
2024/03/10 04:24:48;;;;;;;;;;;8.90;79.70;;;;;;5051380;28;20043;-71
2024/03/10 04:27:14;;;;;;;;;;;8.90;80.00;;;;;;5052403;28;20003;-70
2024/03/10 04:29:41;;;;;;;;;;;8.90;80.00;;;;;;5051169;28;20289;-71
2024/03/10 04:32:07;;;;;;;;;;;8.90;79.80;;;;;;5050515;28;20429;-70
2024/03/10 04:37:18;;;;;;;;;;;8.90;80.30;;;;;;5051049;28;19970;-71
2024/03/10 04:39:44;;;;;;;;;;;8.90;80.10;;;;;;5052271;28;19925;-71
2024/03/10 04:42:10;;;;;;;;;;;8.90;80.40;;;;;;5050331;28;20058;-69
2024/03/10 04:44:36;;;;;;;;;;;8.80;80.90;;;;;;5050775;28;20257;-69
2024/03/10 04:47:03;;;;;;;;;;;8.80;80.30;;;;;;5050806;28;19923;-69
2024/03/10 04:49:29;;;;;;;;;;;8.90;80.70;;;;;;5050730;28;19931;-71
2024/03/10 04:51:55;;;;;;;;;;;8.90;80.70;;;;;;5051748;28;19921;-71
2024/03/10 04:54:21;;;;;;;;;;;8.80;80.80;;;;;;5050538;28;19924;-69
2024/03/10 04:56:47;;;;;;;;;;;8.80;80.70;;;;;;5050887;28;19927;-69
2024/03/10 04:59:13;;;;;;;;;;;8.90;80.70;;;;;;5051978;28;19929;-68
2024/03/10 05:01:39;;;;;;;;;;;8.90;80.60;;;;;;5051666;28;19921;-71
2024/03/10 05:04:05;;;;;;;;;;;8.90;80.50;;;;;;5050632;28;19917;-70
2024/03/10 05:06:31;;;;;;;;;;;8.80;80.80;;;;;;5050352;28;20401;-70
2024/03/10 05:08:58;;;;;;;;;;;8.80;80.80;;;;;;5051736;28;19917;-71
2024/03/10 05:11:24;;;;;;;;;;;8.90;80.70;;;;;;5051182;28;19928;-70
2024/03/10 05:13:50;;;;;;;;;;;8.80;80.90;;;;;;5049941;28;20357;-69
2024/03/10 05:16:17;;;;;;;;;;;8.90;81.00;;;;;;5052200;28;19931;-69
2024/03/10 05:18:43;;;;;;;;;;;8.90;80.80;;;;;;5050518;28;19917;-70
2024/03/10 05:21:09;;;;;;;;;;;8.90;80.60;;;;;;5050207;28;19956;-69
2024/03/10 05:23:35;;;;;;;;;;;8.90;80.50;;;;;;5051602;28;19924;-68
2024/03/10 05:26:01;;;;;;;;;;;8.90;80.40;;;;;;5051968;28;20380;-68
2024/03/10 05:28:27;;;;;;;;;;;8.90;79.60;;;;;;5050159;28;19927;-68
2024/03/10 05:30:52;;;;;;;;;;;8.90;80.50;;;;;;5051299;28;19924;-69
2024/03/10 05:33:19;;;;;;;;;;;8.90;80.30;;;;;;5051479;28;19974;-71
2024/03/10 05:35:45;;;;;;;;;;;8.90;80.50;;;;;;5051845;28;20256;-71
2024/03/10 05:38:11;;;;;;;;;;;9.00;80.60;;;;;;5050188;28;20458;-71
2024/03/10 05:40:36;;;;;;;;;;;8.90;80.80;;;;;;5049766;28;19924;-71
2024/03/10 05:43:03;;;;;;;;;;;8.90;80.80;;;;;;5050207;28;20003;-68
2024/03/10 05:45:29;;;;;;;;;;;8.90;80.70;;;;;;5051602;28;20023;-70
2024/03/10 05:47:55;;;;;;;;;;;8.90;80.90;;;;;;5050148;28;19925;-71
2024/03/10 05:50:21;;;;;;;;;;;8.90;81.10;;;;;;5050993;28;20422;-69
2024/03/10 05:52:47;;;;;;;;;;;8.90;81.00;;;;;;5050109;28;19917;-69
2024/03/10 05:55:13;;;;;;;;;;;8.90;80.80;;;;;;5051122;28;19951;-69
2024/03/10 05:57:41;;;;;;;;;;;8.90;80.60;;;;;;5051341;28;20015;-68
2024/03/10 06:00:13;;;;;;;;;;;9.00;79.90;;;;;;5049472;28;19992;-69
2024/03/10 06:02:44;;;;;;;;;;;9.00;80.30;;;;;;5051346;28;19960;-71
2024/03/10 06:05:12;;;;;;;;;;;9.00;80.10;;;;;;5033379;28;19925;-69
2024/03/10 06:07:38;;;;;;;;;;;9.10;79.90;;;;;;5051046;28;19963;-71
2024/03/10 06:10:06;;;;;;;;;;;9.10;79.70;;;;;;5050967;28;19929;-69
2024/03/10 06:12:32;;;;;;;;;;;9.10;79.40;;;;;;5051205;28;20439;-71
2024/03/10 06:14:59;;;;;;;;;;;9.20;79.40;;;;;;5051415;28;19929;-69
2024/03/10 06:17:31;;;;;;;;;;;9.20;79.40;;;;;;5050967;28;20003;-69
2024/03/10 06:25:29;;;;;;;;;;;9.20;79.30;;;;;;5052137;28;19931;-69
2024/03/10 06:27:56;;;;;;;;;;;9.20;79.20;;;;;;5053427;28;19921;-71
2024/03/10 06:30:23;;;;;;;;;;;9.20;78.70;;;;;;5055497;28;20149;-69
2024/03/10 06:32:50;;;;;;;;;;;9.20;79.10;;;;;;5056613;28;20487;-71
2024/03/10 06:35:16;;;;;;;;;;;9.30;78.90;;;;;;5074680;28;19920;-69
2024/03/10 06:37:44;;;;;;;;;;;9.30;78.70;;;;;;5039954;28;19920;-71
2024/03/10 06:40:11;;;;;;;;;;;9.30;78.70;;;;;;5039262;28;19992;-71
2024/03/10 06:42:36;;;;;;;;;;;9.30;78.90;;;;;;5056491;28;19916;-70
2024/03/10 06:45:04;;;;;;;;;;;9.40;78.90;;;;;;5073099;28;19927;-69
2024/03/10 06:47:31;;;;;;;;;;;9.40;78.10;;;;;;5074224;28;19920;-71
2024/03/10 06:49:58;;;;;;;;;;;9.40;78.60;;;;;;5073278;28;20296;-69
2024/03/10 06:52:23;;;;;;;;;;;9.50;78.60;;;;;;5073736;28;19928;-71
2024/03/10 06:54:49;;;;;;;;;;;9.50;78.50;;;;;;5056468;28;20217;-71
2024/03/10 06:57:15;;;;;;;;;;;9.50;78.40;;;;;;5055913;28;19946;-71
2024/03/10 06:59:42;;;;;;;;;;;9.50;78.30;;;;;;5056169;28;19925;-69
2024/03/10 07:02:11;;;;;;;;;;;9.50;77.70;;;;;;5038317;28;19925;-69
2024/03/10 07:04:44;;;;;;;;;;;9.60;78.10;;;;;;5053909;28;19927;-69
2024/03/10 07:07:09;;;;;;;;;;;9.60;77.80;;;;;;5053879;28;19971;-69
2024/03/10 07:09:35;;;;;;;;;;;9.70;78.00;;;;;;5054077;28;19929;-68
2024/03/10 07:12:03;;;;;;;;;;;9.70;77.90;;;;;;5053547;28;19927;-71
2024/03/10 07:14:29;;;;;;;;;;;9.70;77.70;;;;;;5035944;28;19974;-68
2024/03/10 07:16:55;;;;;;;;;;;9.70;77.80;;;;;;5053786;28;19916;-71
2024/03/10 07:19:21;;;;;;;;;;;9.70;77.90;;;;;;5035837;28;19935;-69
2024/03/10 07:21:47;;;;;;;;;;;9.70;77.80;;;;;;5053301;28;19921;-68
2024/03/10 07:24:13;;;;;;;;;;;9.80;77.80;;;;;;5035609;28;19931;-69
2024/03/10 07:26:38;;;;;;;;;;;9.80;77.60;;;;;;5035805;28;20092;-69
2024/03/10 07:29:04;;;;;;;;;;;9.90;77.40;;;;;;5053310;28;19917;-71
2024/03/10 07:31:30;;;;;;;;;;;9.90;77.30;;;;;;5053116;28;19921;-69
2024/03/10 07:33:56;;;;;;;;;;;9.90;77.10;;;;;;5035649;28;20497;-69
2024/03/10 07:36:26;;;;;;;;;;;10.00;77.00;;;;;;5035248;28;19917;-71
2024/03/10 07:38:53;;;;;;;;;;;10.00;76.70;;;;;;5053155;28;19924;-71
2024/03/10 07:41:19;;;;;;;;;;;9.90;76.40;;;;;;5051513;28;19921;-69
2024/03/10 07:43:47;;;;;;;;;;;9.90;76.10;;;;;;5035560;28;19923;-68
2024/03/10 07:46:14;;;;;;;;;;;10.00;75.90;;;;;;5053648;28;19924;-71
2024/03/10 07:48:40;;;;;;;;;;;10.10;76.50;;;;;;5035437;28;20262;-71
2024/03/10 07:51:06;;;;;;;;;;;10.10;76.30;;;;;;5052775;28;19931;-69
2024/03/10 07:53:33;;;;;;;;;;;10.10;76.30;;;;;;5053092;28;19921;-71
2024/03/10 07:55:58;;;;;;;;;;;10.10;76.30;;;;;;5035280;28;20299;-68
2024/03/10 08:01:09;;;;;;;;;;;10.10;75.60;;;;;;5051257;28;19932;-69
2024/03/10 08:03:35;;;;;;;;;;;10.10;76.00;;;;;;5052868;28;20003;-71
2024/03/10 08:06:01;;;;;;;;;;;10.10;76.00;;;;;;5034707;28;19929;-71
2024/03/10 08:08:27;;;;;;;;;;;10.10;76.00;;;;;;5052704;28;19921;-69
2024/03/10 08:10:53;;;;;;;;;;;10.30;75.70;;;;;;5052276;28;19931;-71
2024/03/10 08:13:19;;;;;;;;;;;10.40;75.20;;;;;;5034829;28;19917;-69
2024/03/10 08:15:47;;;;;;;;;;;10.60;74.70;;;;;;5034976;28;20366;-69
2024/03/10 08:18:13;;;;;;;;;;;10.90;74.00;;;;;;5034654;28;19925;-69
2024/03/10 08:20:40;;;;;;;;;;;11.20;73.40;;;;;;5052263;28;20007;-70
2024/03/10 08:23:06;;;;;;;;;;;11.60;72.60;;;;;;5018393;28;19928;-69
2024/03/10 08:25:34;;;;;;;;;;;12.20;71.20;;;;;;5052867;28;19920;-70
2024/03/10 08:28:00;;;;;;;;;;;12.60;69.10;;;;;;5034434;28;19928;-71
2024/03/10 08:30:26;;;;;;;;;;;12.50;68.70;;;;;;5052014;28;20392;-71
2024/03/10 08:32:52;;;;;;;;;;;12.40;69.20;;;;;;5034394;28;19923;-68
2024/03/10 08:35:20;;;;;;;;;;;12.40;69.50;;;;;;5034565;28;20012;-69
2024/03/10 08:37:46;;;;;;;;;;;12.50;69.00;;;;;;5034463;28;19924;-71
2024/03/10 08:40:12;;;;;;;;;;;12.40;67.10;;;;;;5033812;28;19925;-69
2024/03/10 08:42:41;;;;;;;;;;;12.30;68.20;;;;;;5034828;28;19986;-71
2024/03/10 08:47:52;;;;;;;;;;;12.20;68.70;;;;;;5036193;28;19966;-69
2024/03/10 08:50:18;;;;;;;;;;;12.10;69.00;;;;;;5033921;28;19979;-69
2024/03/10 08:52:44;;;;;;;;;;;12.00;69.30;;;;;;5034224;28;19916;-69
2024/03/10 08:55:13;;;;;;;;;;;12.00;68.70;;;;;;5033969;28;20011;-69
2024/03/10 08:57:41;;;;;;;;;;;12.00;69.30;;;;;;5034072;28;19921;-71
2024/03/10 09:02:54;;;;;;;;;;;11.80;69.30;;;;;;5051751;28;19916;-69
2024/03/10 09:05:20;;;;;;;;;;;11.80;69.40;;;;;;5033757;28;20020;-69
2024/03/10 09:07:47;;;;;;;;;;;11.80;69.30;;;;;;5051797;28;19970;-68
2024/03/10 09:10:14;;;;;;;;;;;11.80;69.80;;;;;;5016366;28;21273;-71
2024/03/10 09:12:39;;;;;;;;;;;11.90;69.80;;;;;;5051828;28;19923;-70
2024/03/10 09:15:06;;;;;;;;;;;12.00;69.50;;;;;;5033885;28;19955;-68
2024/03/10 09:17:32;;;;;;;;;;;12.10;68.70;;;;;;5051827;28;19952;-69
2024/03/10 09:20:00;;;;;;;;;;;12.30;69.10;;;;;;5033959;28;20290;-71
2024/03/10 09:22:26;;;;;;;;;;;12.40;68.30;;;;;;5033743;28;19928;-71
2024/03/10 09:24:53;;;;;;;;;;;12.70;67.70;;;;;;5017246;28;19925;-71
2024/03/10 09:27:19;;;;;;;;;;;12.80;67.30;;;;;;5017457;28;20427;-70
2024/03/10 09:29:46;;;;;;;;;;;12.80;66.80;;;;;;5051606;28;20015;-71
2024/03/10 09:32:15;;;;;;;;;;;12.90;66.70;;;;;;5051154;28;19928;-71
2024/03/10 09:34:42;;;;;;;;;;;12.90;66.70;;;;;;5050644;28;20429;-69
2024/03/10 09:37:09;;;;;;;;;;;12.90;66.00;;;;;;5050400;28;20278;-69
2024/03/10 09:39:34;;;;;;;;;;;13.00;66.40;;;;;;5051550;28;20019;-71
2024/03/10 09:42:00;;;;;;;;;;;13.10;66.20;;;;;;5051161;28;20011;-71
2024/03/10 09:44:26;;;;;;;;;;;13.20;66.00;;;;;;5016990;28;20016;-68
2024/03/10 09:46:53;;;;;;;;;;;13.20;65.80;;;;;;5033586;28;20354;-69
2024/03/10 09:49:19;;;;;;;;;;;13.20;64.70;;;;;;5033391;28;19921;-71
2024/03/10 09:51:50;;;;;;;;;;;13.40;64.80;;;;;;5050851;28;19986;-72
2024/03/10 09:54:17;;;;;;;;;;;13.50;64.90;;;;;;5051168;28;20395;-71
2024/03/10 09:56:45;;;;;;;;;;;13.40;64.00;;;;;;5051306;28;19925;-69
2024/03/10 09:59:33;;;;;;;;;;;13.20;64.20;;;;;;5034129;28;20441;-69
2024/03/10 10:02:04;;;;;;;;;;;13.20;64.20;;;;;;5054689;28;20278;-69
2024/03/10 10:04:39;;;;;;;;;;;13.20;64.80;;;;;;5055279;28;20263;-71
2024/03/10 10:07:08;;;;;;;;;;;13.30;64.80;;;;;;5037255;28;19928;-71
2024/03/10 10:09:36;;;;;;;;;;;13.40;64.80;;;;;;5037047;28;19921;-71
2024/03/10 10:12:02;;;;;;;;;;;13.40;64.60;;;;;;5036482;28;19929;-68
2024/03/10 10:14:29;;;;;;;;;;;13.20;63.30;;;;;;5037331;28;19935;-71
2024/03/10 10:16:57;;;;;;;;;;;13.20;64.50;;;;;;5037283;28;20350;-69
2024/03/10 10:19:25;;;;;;;;;;;13.30;64.60;;;;;;5036873;28;19921;-69
2024/03/10 10:21:52;;;;;;;;;;;13.30;64.10;;;;;;5054271;28;20343;-69
2024/03/10 10:24:19;;;;;;;;;;;13.30;64.10;;;;;;5036932;28;19974;-69
2024/03/10 10:27:04;;;;;;;;;;;13.20;63.30;;;;;;5053548;28;19966;-69
2024/03/10 10:29:31;;;;;;;;;;;13.30;64.00;;;;;;5054743;28;20470;-72
2024/03/10 10:31:57;;;;;;;;;;;13.30;63.70;;;;;;5036037;28;19967;-69
2024/03/10 10:34:24;;;;;;;;;;;13.60;63.50;;;;;;5036629;28;19927;-72
2024/03/10 10:36:50;;;;;;;;;;;13.60;63.10;;;;;;5036683;28;20012;-70
2024/03/10 10:39:26;;;;;;;;;;;13.60;63.00;;;;;;5036516;28;19927;-72
2024/03/10 10:41:55;;;;;;;;;;;13.50;63.10;;;;;;5053856;28;19932;-71
2024/03/10 10:44:23;;;;;;;;;;;13.30;63.20;;;;;;5020059;28;20020;-71
2024/03/10 10:46:51;;;;;;;;;;;13.40;63.40;;;;;;5054288;28;19921;-71
2024/03/10 10:49:37;;;;;;;;;;;13.30;63.60;;;;;;5054247;28;20593;-72
2024/03/10 10:52:03;;;;;;;;;;;13.20;64.00;;;;;;5053953;28;20013;-71
2024/03/10 10:54:29;;;;;;;;;;;13.20;64.40;;;;;;5036181;28;19947;-71
2024/03/10 10:56:57;;;;;;;;;;;13.10;64.90;;;;;;5036312;28;19916;-71
2024/03/10 11:00:00;;;;;;;;;;;13.20;64.70;;;;;;5036336;28;19924;-69
2024/03/10 11:02:27;;;;;;;;;;;13.30;64.10;;;;;;5053816;28;20290;-69
2024/03/10 11:04:53;;;;;;;;;;;13.50;63.90;;;;;;5053984;28;20388;-72
2024/03/10 11:07:19;;;;;;;;;;;13.60;63.50;;;;;;5035940;28;19920;-72
2024/03/10 11:09:45;;;;;;;;;;;14.00;63.30;;;;;;5035956;28;19939;-72
2024/03/10 11:12:31;;;;;;;;;;;14.50;61.70;;;;;;5052895;28;19921;-69
2024/03/10 11:14:57;;;;;;;;;;;14.90;60.80;;;;;;5035886;28;20386;-72
2024/03/10 11:17:29;;;;;;;;;;;14.90;60.20;;;;;;5053816;28;19917;-71
2024/03/10 11:19:56;;;;;;;;;;;14.80;59.40;;;;;;5036220;28;19947;-69
2024/03/10 11:22:50;;;;;;;;;;;14.80;60.50;;;;;;5018707;28;20411;-71
2024/03/10 11:25:20;;;;;;;;;;;14.70;60.10;;;;;;5035591;28;20130;-69
2024/03/10 11:27:46;;;;;;;;;;;14.60;60.20;;;;;;5036316;28;19917;-69
2024/03/10 11:30:50;;;;;;;;;;;14.50;60.30;;;;;;5035218;28;20047;-72
2024/03/10 11:33:21;;;;;;;;;;;14.40;60.20;;;;;;5053426;28;20294;-69
2024/03/10 11:35:47;;;;;;;;;;;14.30;60.70;;;;;;5053543;28;20362;-72
2024/03/10 11:38:15;;;;;;;;;;;14.30;61.40;;;;;;5035573;28;19920;-72
2024/03/10 11:40:42;;;;;;;;;;;14.40;61.40;;;;;;5052847;28;20386;-72
2024/03/10 11:43:10;;;;;;;;;;;14.50;61.20;;;;;;5019035;28;19956;-72
2024/03/10 11:45:40;;;;;;;;;;;14.40;60.10;;;;;;5035888;28;19927;-72
2024/03/10 11:48:07;;;;;;;;;;;14.40;60.70;;;;;;5053282;28;19921;-69
2024/03/10 11:50:33;;;;;;;;;;;14.40;60.50;;;;;;5052959;28;20302;-72
2024/03/10 11:52:59;;;;;;;;;;;14.40;60.70;;;;;;5053109;28;19923;-69
2024/03/10 11:55:25;;;;;;;;;;;14.60;60.50;;;;;;5053337;28;20377;-72
2024/03/10 11:58:04;;;;;;;;;;;14.60;60.60;;;;;;5035185;28;20381;-72
2024/03/10 12:00:30;;;;;;;;;;;14.60;59.80;;;;;;5052465;28;19975;-71
2024/03/10 12:02:56;;;;;;;;;;;14.60;60.10;;;;;;5034925;28;19963;-68
2024/03/10 12:05:22;;;;;;;;;;;14.60;59.70;;;;;;5034876;28;20007;-69
2024/03/10 12:08:08;;;;;;;;;;;14.50;59.40;;;;;;5018281;28;19931;-72
2024/03/10 12:10:34;;;;;;;;;;;14.30;59.90;;;;;;5052593;28;20298;-69
2024/03/10 12:13:00;;;;;;;;;;;14.20;60.80;;;;;;5052741;28;19916;-71
2024/03/10 12:15:28;;;;;;;;;;;14.10;62.00;;;;;;5034504;28;20301;-72
2024/03/10 12:17:54;;;;;;;;;;;14.10;62.00;;;;;;5035086;28;19924;-69
2024/03/10 12:20:22;;;;;;;;;;;14.20;61.60;;;;;;5052242;28;20015;-72
2024/03/10 12:22:48;;;;;;;;;;;14.20;61.50;;;;;;5033732;28;19952;-72
2024/03/10 12:25:14;;;;;;;;;;;14.30;61.50;;;;;;5034768;28;20011;-72
2024/03/10 12:27:41;;;;;;;;;;;14.20;61.60;;;;;;5034453;28;19920;-72
2024/03/10 12:30:21;;;;;;;;;;;14.10;61.50;;;;;;5017585;28;19956;-68
2024/03/10 12:35:31;;;;;;;;;;;13.90;62.20;;;;;;5037292;28;19928;-72
2024/03/10 12:37:57;;;;;;;;;;;13.80;63.20;;;;;;5034578;28;19920;-69
2024/03/10 12:40:23;;;;;;;;;;;13.80;63.40;;;;;;5033909;28;19990;-71
2024/03/10 12:42:50;;;;;;;;;;;13.80;63.10;;;;;;5034396;28;19924;-72
2024/03/10 12:45:16;;;;;;;;;;;13.80;63.00;;;;;;5052427;28;19917;-71
2024/03/10 12:47:43;;;;;;;;;;;13.80;62.70;;;;;;5052100;28;19979;-70
2024/03/10 12:50:10;;;;;;;;;;;13.90;63.10;;;;;;5033750;28;20016;-71
2024/03/10 12:52:36;;;;;;;;;;;13.90;62.30;;;;;;5052113;28;20045;-71
2024/03/10 12:55:07;;;;;;;;;;;13.90;62.50;;;;;;5033950;28;20016;-72
2024/03/10 12:57:56;;;;;;;;;;;13.90;62.90;;;;;;5035123;28;20006;-72
2024/03/10 13:03:09;;;;;;;;;;;14.00;62.10;;;;;;5034165;28;19924;-69
2024/03/10 13:05:36;;;;;;;;;;;14.20;62.30;;;;;;5051652;28;19971;-69
2024/03/10 13:08:03;;;;;;;;;;;14.30;61.50;;;;;;5034006;28;19917;-69
2024/03/10 13:10:29;;;;;;;;;;;14.40;61.80;;;;;;5033516;28;19928;-69
2024/03/10 13:12:56;;;;;;;;;;;14.50;61.20;;;;;;5033830;28;19917;-69
2024/03/10 13:15:23;;;;;;;;;;;14.60;61.30;;;;;;5033912;28;19920;-69
2024/03/10 13:17:49;;;;;;;;;;;14.60;60.70;;;;;;5017443;28;19931;-72
2024/03/10 13:23:00;;;;;;;;;;;14.80;61.20;;;;;;5036893;28;20013;-72
2024/03/10 13:25:27;;;;;;;;;;;14.80;60.80;;;;;;5051766;28;19936;-72
2024/03/10 13:27:53;;;;;;;;;;;15.00;60.80;;;;;;5033924;28;20408;-72
2024/03/10 13:30:19;;;;;;;;;;;15.10;60.10;;;;;;5016765;28;20023;-72
2024/03/10 13:32:45;;;;;;;;;;;15.20;59.30;;;;;;5051846;28;19917;-72
2024/03/10 13:35:12;;;;;;;;;;;15.40;59.60;;;;;;5035790;28;19931;-72
2024/03/10 13:37:38;;;;;;;;;;;15.60;59.50;;;;;;5038150;28;19927;-72
2024/03/10 13:40:10;;;;;;;;;;;15.60;59.10;;;;;;5037376;28;19925;-69
2024/03/10 13:42:37;;;;;;;;;;;15.70;58.90;;;;;;5055664;28;20374;-72
2024/03/10 13:45:05;;;;;;;;;;;15.60;58.30;;;;;;5037883;28;20404;-69
2024/03/10 13:47:31;;;;;;;;;;;15.70;58.80;;;;;;5037739;28;20302;-69
2024/03/10 13:49:58;;;;;;;;;;;15.60;58.80;;;;;;5037705;28;20433;-72
2024/03/10 13:52:25;;;;;;;;;;;15.60;59.20;;;;;;5037189;28;20386;-71
2024/03/10 13:54:52;;;;;;;;;;;15.70;59.20;;;;;;5037863;28;19929;-69
2024/03/10 13:57:22;;;;;;;;;;;15.60;58.90;;;;;;5020702;28;19923;-68
2024/03/10 13:59:51;;;;;;;;;;;15.70;58.60;;;;;;5021572;28;20347;-72
2024/03/10 14:02:17;;;;;;;;;;;15.70;58.50;;;;;;5037024;28;19921;-72
2024/03/10 14:04:43;;;;;;;;;;;15.70;58.00;;;;;;5020398;28;20035;-69
2024/03/10 14:07:10;;;;;;;;;;;15.80;58.70;;;;;;5055131;28;19921;-69
2024/03/10 14:09:36;;;;;;;;;;;15.70;58.00;;;;;;5055021;28;19943;-72
2024/03/10 14:14:48;;;;;;;;;;;15.80;58.60;;;;;;5040419;28;20289;-69
2024/03/10 14:17:14;;;;;;;;;;;15.80;58.70;;;;;;5037174;28;20335;-72
2024/03/10 14:19:39;;;;;;;;;;;15.80;58.60;;;;;;5036957;28;20170;-72
2024/03/10 14:22:05;;;;;;;;;;;15.80;58.20;;;;;;5036508;28;19924;-72
2024/03/10 14:24:31;;;;;;;;;;;15.90;58.20;;;;;;5054971;28;19927;-72
2024/03/10 14:26:57;;;;;;;;;;;16.00;57.90;;;;;;5036962;28;19927;-72
2024/03/10 14:29:24;;;;;;;;;;;16.00;57.80;;;;;;5054580;28;19921;-71
2024/03/10 14:31:50;;;;;;;;;;;15.90;58.10;;;;;;5054371;28;19925;-72
2024/03/10 14:34:17;;;;;;;;;;;15.80;57.80;;;;;;5036452;28;19928;-69
2024/03/10 14:36:42;;;;;;;;;;;15.80;58.70;;;;;;5054469;28;20003;-72
2024/03/10 14:39:12;;;;;;;;;;;15.70;58.80;;;;;;5020088;28;19951;-71
2024/03/10 14:41:39;;;;;;;;;;;15.60;58.90;;;;;;5036158;28;20002;-71
2024/03/10 14:44:05;;;;;;;;;;;15.50;59.10;;;;;;5054593;28;20279;-72
2024/03/10 14:46:32;;;;;;;;;;;15.50;59.40;;;;;;5035250;28;19928;-72
2024/03/10 14:48:58;;;;;;;;;;;15.40;59.40;;;;;;5036426;28;19964;-69
2024/03/10 14:51:26;;;;;;;;;;;15.40;59.90;;;;;;5053945;28;20433;-69
2024/03/10 14:53:52;;;;;;;;;;;15.30;60.10;;;;;;5036673;28;19917;-72
2024/03/10 14:56:19;;;;;;;;;;;15.20;60.00;;;;;;5036239;28;19925;-69
2024/03/10 14:58:47;;;;;;;;;;;15.10;60.30;;;;;;5036251;28;20342;-72
2024/03/10 15:01:14;;;;;;;;;;;15.10;60.30;;;;;;5035932;28;19935;-69
2024/03/10 15:06:27;;;;;;;;;;;15.10;60.20;;;;;;5033038;28;19925;-72
2024/03/10 15:08:59;;;;;;;;;;;15.10;60.60;;;;;;5033932;28;19921;-69
2024/03/10 15:11:25;;;;;;;;;;;15.10;60.80;;;;;;5033491;28;19925;-69
2024/03/10 15:13:51;;;;;;;;;;;15.10;60.70;;;;;;5034002;28;20322;-69
2024/03/10 15:16:18;;;;;;;;;;;15.10;60.70;;;;;;5034396;28;20326;-68
2024/03/10 15:18:45;;;;;;;;;;;15.10;60.70;;;;;;5034088;28;19917;-69